createdAt,value
2018-10-01T00:01:49.798Z,101214.86
2018-10-01T00:04:18.872Z,101197.09
2018-10-01T00:06:48.053Z,101201.13
2018-10-01T00:09:17.118Z,101200.73
2018-10-01T00:11:46.375Z,101188.99
2018-10-01T00:14:15.390Z,101194.89
2018-10-01T00:16:44.532Z,101189.17
2018-10-01T00:19:19.381Z,101194.28
2018-10-01T00:21:53.658Z,101182.99
2018-10-01T00:24:23.581Z,101182.37
2018-10-01T00:26:52.659Z,101182.44
2018-10-01T00:29:21.662Z,101173.18
2018-10-01T00:31:51.273Z,101177.69
2018-10-01T00:34:20.366Z,101169.59
2018-10-01T00:36:49.517Z,101153.70
2018-10-01T00:39:18.564Z,101153.52
2018-10-01T00:41:47.630Z,101150.99
2018-10-01T00:44:16.782Z,101146.13
2018-10-01T00:46:45.885Z,101155.34
2018-10-01T00:49:15.057Z,101162.89
2018-10-01T00:51:44.076Z,101158.39
2018-10-01T00:54:13.446Z,101150.05
2018-10-01T00:56:43.054Z,101140.35
2018-10-01T00:59:12.180Z,101141.42
2018-10-01T01:01:41.219Z,101137.09
2018-10-01T01:04:10.409Z,101134.05
2018-10-01T01:06:39.630Z,101126.72
2018-10-01T01:09:09.314Z,101112.25
2018-10-01T01:11:38.496Z,101123.28
2018-10-01T01:14:07.548Z,101127.33
2018-10-01T01:16:36.664Z,101123.12
2018-10-01T01:19:05.798Z,101121.66
2018-10-01T01:21:35.035Z,101112.82
2018-10-01T01:24:04.207Z,101123.78
2018-10-01T01:26:33.270Z,101112.05
2018-10-01T01:29:02.411Z,101112.70
2018-10-01T01:31:31.927Z,101121.70
2018-10-01T01:34:01.180Z,101115.88
2018-10-01T01:36:30.242Z,101112.38
2018-10-01T01:38:59.300Z,101106.67
2018-10-01T01:41:28.367Z,101094.41
2018-10-01T01:43:57.426Z,101109.11
2018-10-01T01:46:26.485Z,101097.16
2018-10-01T01:48:55.977Z,101100.27
2018-10-01T01:51:25.060Z,101090.25
2018-10-01T01:53:54.346Z,101091.72
2018-10-01T01:56:23.443Z,101087.48
2018-10-01T01:58:52.475Z,101083.38
2018-10-01T02:01:21.588Z,101078.02
2018-10-01T02:03:50.942Z,101078.08
2018-10-01T02:06:20.151Z,101076.57
2018-10-01T02:08:49.216Z,101078.33
2018-10-01T02:11:18.680Z,101066.59
2018-10-01T02:13:48.210Z,101074.30
2018-10-01T02:16:17.428Z,101054.57
2018-10-01T02:18:46.461Z,101074.30
2018-10-01T02:21:15.534Z,101075.55
2018-10-01T02:23:45.060Z,101063.55
2018-10-01T02:26:14.532Z,101065.20
2018-10-01T02:28:43.694Z,101067.59
2018-10-01T02:31:12.858Z,101065.56
2018-10-01T02:33:42.380Z,101054.33
2018-10-01T02:36:11.938Z,101053.31
2018-10-01T02:38:41.227Z,101052.82
2018-10-01T02:41:10.559Z,101045.48
2018-10-01T02:43:40.011Z,101044.73
2018-10-01T02:46:09.061Z,101049.39
2018-10-01T02:48:38.221Z,101044.59
2018-10-01T02:51:07.393Z,101041.17
2018-10-01T02:53:41.416Z,101026.91
2018-10-01T02:56:10.560Z,101032.47
2018-10-01T02:58:39.660Z,101028.67
2018-10-01T03:01:09.236Z,101035.50
2018-10-01T03:03:38.492Z,101027.28
2018-10-01T03:06:07.652Z,101027.53
2018-10-01T03:08:36.682Z,101011.08
2018-10-01T03:11:05.907Z,101026.77
2018-10-01T03:13:35.065Z,101027.80
2018-10-01T03:16:04.173Z,101015.80
2018-10-01T03:18:33.369Z,101023.23
2018-10-01T03:21:02.478Z,101010.86
2018-10-01T03:23:31.620Z,101022.22
2018-10-01T03:26:00.644Z,101023.13
2018-10-01T03:28:29.705Z,101013.16
2018-10-01T03:30:59.092Z,101008.71
2018-10-01T03:33:28.094Z,101000.01
2018-10-01T03:35:57.126Z,100998.47
2018-10-01T03:38:26.408Z,100998.49
2018-10-01T03:40:55.672Z,101002.28
2018-10-01T03:43:25.027Z,100999.97
2018-10-01T03:45:54.161Z,100994.70
2018-10-01T03:48:23.453Z,100994.95
2018-10-01T03:50:53.058Z,100992.70
2018-10-01T03:53:22.547Z,100985.09
2018-10-01T03:55:51.938Z,100992.93
2018-10-01T03:58:21.164Z,100982.84
2018-10-01T04:00:50.209Z,100981.16
2018-10-01T04:03:19.267Z,100969.53
2018-10-01T04:05:48.589Z,100974.45
2018-10-01T04:08:17.812Z,100979.25
2018-10-01T04:10:47.148Z,100968.91
2018-10-01T04:13:16.281Z,100956.27
2018-10-01T04:15:45.747Z,100966.25
2018-10-01T04:18:15.372Z,100962.35
2018-10-01T04:20:44.921Z,100957.79
2018-10-01T04:23:14.368Z,100949.09
2018-10-01T04:25:43.416Z,100944.54
2018-10-01T04:28:12.529Z,100937.46
2018-10-01T04:30:41.543Z,100939.45
2018-10-01T04:33:10.605Z,100941.38
2018-10-01T04:35:40.088Z,100935.05
2018-10-01T04:38:09.484Z,100932.14
2018-10-01T04:40:38.718Z,100926.61
2018-10-01T04:43:08.249Z,100934.30
2018-10-01T04:45:37.382Z,100913.70
2018-10-01T04:48:06.456Z,100921.30
2018-10-01T04:50:36.426Z,100928.19
2018-10-01T04:53:06.049Z,100912.30
2018-10-01T04:55:35.632Z,100910.30
2018-10-01T04:58:04.926Z,100903.47
2018-10-01T05:00:34.001Z,100912.41
2018-10-01T05:03:03.674Z,100900.88
2018-10-01T05:05:32.976Z,100900.56
2018-10-01T05:08:02.443Z,100905.30
2018-10-01T05:10:32.031Z,100902.75
2018-10-01T05:13:01.392Z,100899.89
2018-10-01T05:15:30.525Z,100892.72
2018-10-01T05:17:59.547Z,100894.61
2018-10-01T05:20:28.820Z,100893.75
2018-10-01T05:22:57.983Z,100895.21
2018-10-01T05:25:27.598Z,100897.73
2018-10-01T05:27:56.686Z,100893.02
2018-10-01T05:30:25.775Z,100892.91
2018-10-01T05:32:54.770Z,100899.93
2018-10-01T05:35:24.088Z,100893.39
2018-10-01T05:37:53.608Z,100890.34
2018-10-01T05:40:22.618Z,100892.89
2018-10-01T05:42:51.932Z,100897.10
2018-10-01T05:45:20.904Z,100904.28
2018-10-01T05:47:50.473Z,100894.61
2018-10-01T05:50:19.540Z,100904.92
2018-10-01T05:52:48.740Z,100869.40
2018-10-01T05:55:17.755Z,100880.63
2018-10-01T05:57:46.979Z,100865.45
2018-10-01T06:00:16.052Z,100879.03
2018-10-01T06:02:45.257Z,100889.56
2018-10-01T06:05:14.980Z,100892.98
2018-10-01T06:07:44.412Z,100889.78
2018-10-01T06:10:13.454Z,100892.87
2018-10-01T06:12:42.549Z,100895.69
2018-10-01T06:15:11.610Z,100892.16
2018-10-01T06:17:41.140Z,100891.79
2018-10-01T06:20:10.269Z,100888.55
2018-10-01T06:22:39.362Z,100886.28
2018-10-01T06:25:08.427Z,100873.16
2018-10-01T06:27:37.871Z,100879.26
2018-10-01T06:30:07.080Z,100878.44
2018-10-01T06:32:36.190Z,100871.63
2018-10-01T06:35:05.337Z,100872.08
2018-10-01T06:37:34.366Z,100873.20
2018-10-01T06:40:03.502Z,100874.72
2018-10-01T06:42:33.048Z,100874.91
2018-10-01T06:45:02.102Z,100878.36
2018-10-01T06:47:31.152Z,100868.69
2018-10-01T06:50:00.226Z,100881.45
2018-10-01T06:52:29.293Z,100877.43
2018-10-01T06:54:58.369Z,100855.79
2018-10-01T06:57:29.046Z,100859.47
2018-10-01T06:59:58.088Z,100869.18
2018-10-01T07:02:27.319Z,100864.64
2018-10-01T07:04:56.377Z,100853.94
2018-10-01T07:07:25.774Z,100857.61
2018-10-01T07:09:54.806Z,100854.48
2018-10-01T07:12:24.245Z,100862.03
2018-10-01T07:14:53.708Z,100868.33
2018-10-01T07:17:22.883Z,100866.46
2018-10-01T07:19:52.161Z,100855.23
2018-10-01T07:22:21.370Z,100859.84
2018-10-01T07:24:50.615Z,100855.83
2018-10-01T07:27:19.860Z,100854.67
2018-10-01T07:29:49.449Z,100852.78
2018-10-01T07:32:18.840Z,100847.13
2018-10-01T07:34:48.333Z,100848.09
2018-10-01T07:37:17.718Z,100830.95
2018-10-01T07:39:47.198Z,100832.92
2018-10-01T07:42:16.696Z,100828.87
2018-10-01T07:44:46.068Z,100829.83
2018-10-01T07:47:15.702Z,100820.13
2018-10-01T07:49:45.235Z,100830.55
2018-10-01T07:52:14.689Z,100823.73
2018-10-01T07:54:43.928Z,100840.27
2018-10-01T07:57:13.110Z,100812.67
2018-10-01T07:59:42.230Z,100834.78
2018-10-01T08:02:11.883Z,100823.87
2018-10-01T08:04:41.717Z,100834.48
2018-10-01T08:07:11.071Z,100835.31
2018-10-01T08:09:40.354Z,100830.05
2018-10-01T08:12:09.399Z,100824.31
2018-10-01T08:14:39.105Z,100818.88
2018-10-01T08:17:08.103Z,100811.81
2018-10-01T08:19:37.191Z,100805.28
2018-10-01T08:22:06.321Z,100798.32
2018-10-01T08:24:35.426Z,100794.84
2018-10-01T08:27:04.553Z,100793.00
2018-10-01T08:29:33.667Z,100797.64
2018-10-01T08:32:03.384Z,100793.91
2018-10-01T08:34:32.417Z,100790.64
2018-10-01T08:37:01.536Z,100799.86
2018-10-01T08:39:30.590Z,100787.47
2018-10-01T08:41:59.735Z,100785.36
2018-10-01T08:44:28.800Z,100782.30
2018-10-01T08:46:58.284Z,100777.50
2018-10-01T08:49:32.629Z,100772.03
2018-10-01T08:52:10.320Z,100765.70
2018-10-01T08:54:42.025Z,100769.50
2018-10-01T08:57:11.806Z,100765.81
2018-10-01T08:59:41.313Z,100756.79
2018-10-01T09:02:10.801Z,100759.02
2018-10-01T09:04:40.389Z,100758.48
2018-10-01T09:07:09.482Z,100760.41
2018-10-01T09:09:38.934Z,100753.62
2018-10-01T09:12:08.817Z,100744.34
2018-10-01T09:14:38.220Z,100747.17
2018-10-01T09:17:07.342Z,100738.99
2018-10-01T09:19:36.477Z,100741.55
2018-10-01T09:22:05.582Z,100746.17
2018-10-01T09:24:34.654Z,100752.02
2018-10-01T09:27:03.848Z,100743.41
2018-10-01T09:29:33.117Z,100733.29
2018-10-01T09:32:02.145Z,100723.64
2018-10-01T09:34:31.285Z,100737.30
2018-10-01T09:37:00.534Z,100732.60
2018-10-01T09:39:29.582Z,100726.86
2018-10-01T09:41:58.813Z,100709.97
2018-10-01T09:44:28.046Z,100708.16
2018-10-01T09:46:57.459Z,100715.35
2018-10-01T09:49:26.864Z,100715.20
2018-10-01T09:51:56.010Z,100711.67
2018-10-01T09:54:25.166Z,100709.53
2018-10-01T09:56:54.630Z,100711.70
2018-10-01T09:59:23.686Z,100702.38
2018-10-01T10:01:52.778Z,100696.23
2018-10-01T10:04:22.141Z,100699.69
2018-10-01T10:06:51.336Z,100703.99
2018-10-01T10:09:20.639Z,100683.99
2018-10-01T10:11:50.031Z,100696.53
2018-10-01T10:14:19.406Z,100686.20
2018-10-01T10:16:48.474Z,100687.36
2018-10-01T10:19:17.849Z,100688.94
2018-10-01T10:21:47.104Z,100693.45
2018-10-01T10:24:16.561Z,100676.02
2018-10-01T10:26:45.648Z,100679.52
2018-10-01T10:29:14.828Z,100665.97
2018-10-01T10:31:43.986Z,100668.53
2018-10-01T10:34:13.180Z,100668.80
2018-10-01T10:36:42.357Z,100668.88
2018-10-01T10:39:13.222Z,100673.31
2018-10-01T10:41:42.953Z,100672.50
2018-10-01T10:44:12.332Z,100671.23
2018-10-01T10:46:41.691Z,100677.19
2018-10-01T10:49:11.282Z,100669.10
2018-10-01T10:51:40.740Z,100685.05
2018-10-01T10:54:09.869Z,100672.08
2018-10-01T10:56:38.903Z,100676.47
2018-10-01T10:59:08.036Z,100676.02
2018-10-01T11:01:37.062Z,100677.46
2018-10-01T11:04:06.113Z,100682.73
2018-10-01T11:06:35.508Z,100690.19
2018-10-01T11:09:05.646Z,100683.97
2018-10-01T11:11:34.854Z,100676.72
2018-10-01T11:14:04.150Z,100679.08
2018-10-01T11:16:33.131Z,100667.09
2018-10-01T11:19:02.656Z,100681.76
2018-10-01T11:21:31.634Z,100672.20
2018-10-01T11:24:00.748Z,100668.55
2018-10-01T11:26:29.822Z,100668.05
2018-10-01T11:28:59.529Z,100660.89
2018-10-01T11:31:28.700Z,100668.13
2018-10-01T11:33:57.724Z,100647.70
2018-10-01T11:36:26.746Z,100640.69
2018-10-01T11:38:55.898Z,100648.62
2018-10-01T11:41:25.016Z,100649.70
2018-10-01T11:43:54.140Z,100651.26
2018-10-01T11:46:23.259Z,100642.93
2018-10-01T11:48:52.318Z,100644.27
2018-10-01T11:51:21.396Z,100645.34
2018-10-01T11:53:50.464Z,100645.44
2018-10-01T11:56:19.467Z,100641.46
2018-10-01T11:58:48.503Z,100650.88
2018-10-01T12:01:17.583Z,100650.98
2018-10-01T12:03:46.760Z,100634.14
2018-10-01T12:06:15.882Z,100630.80
2018-10-01T12:08:45.037Z,100624.90
2018-10-01T12:11:14.223Z,100625.28
2018-10-01T12:13:43.369Z,100621.89
2018-10-01T12:16:12.827Z,100624.25
2018-10-01T12:18:41.924Z,100636.95
2018-10-01T12:21:11.048Z,100636.95
2018-10-01T12:23:40.255Z,100634.42
2018-10-01T12:26:09.412Z,100622.76
2018-10-01T12:28:38.516Z,100619.95
2018-10-01T12:31:07.946Z,100619.07
2018-10-01T12:33:37.081Z,100610.55
2018-10-01T12:36:06.323Z,100622.38
2018-10-01T12:38:35.487Z,100617.77
2018-10-01T12:41:04.760Z,100605.30
2018-10-01T12:43:33.856Z,100599.05
2018-10-01T12:46:02.889Z,100595.42
2018-10-01T12:48:32.001Z,100595.31
2018-10-01T12:51:02.245Z,100598.81
2018-10-01T12:53:31.234Z,100576.23
2018-10-01T12:56:00.509Z,100594.62
2018-10-01T12:58:29.509Z,100583.45
2018-10-01T13:00:58.654Z,100589.94
2018-10-01T13:03:27.863Z,100581.06
2018-10-01T13:05:56.904Z,100573.97
2018-10-01T13:08:25.952Z,100588.47
2018-10-01T13:10:55.470Z,100591.55
2018-10-01T13:13:24.760Z,100582.95
2018-10-01T13:15:53.924Z,100584.73
2018-10-01T13:18:23.024Z,100569.99
2018-10-01T13:20:52.120Z,100581.41
2018-10-01T13:23:21.202Z,100578.13
2018-10-01T13:25:50.734Z,100589.94
2018-10-01T13:28:19.772Z,100587.22
2018-10-01T13:30:49.131Z,100590.99
2018-10-01T13:33:18.218Z,100578.23
2018-10-01T13:35:47.268Z,100569.96
2018-10-01T13:38:16.470Z,100579.18
2018-10-01T13:40:45.530Z,100583.59
2018-10-01T13:43:14.570Z,100593.01
2018-10-01T13:45:43.827Z,100592.50
2018-10-01T13:48:12.960Z,100606.08
2018-10-01T13:50:41.979Z,100594.99
2018-10-01T13:53:11.068Z,100595.47
2018-10-01T13:55:40.074Z,100592.52
2018-10-01T13:58:09.498Z,100580.77
2018-10-01T14:00:38.741Z,100588.29
2018-10-01T14:03:08.374Z,100584.31
2018-10-01T14:05:37.522Z,100596.85
2018-10-01T14:08:06.787Z,100591.04
2018-10-01T14:10:35.936Z,100582.59
2018-10-01T14:13:05.091Z,100585.30
2018-10-01T14:15:34.100Z,100571.72
2018-10-01T14:18:03.711Z,100573.86
2018-10-01T14:20:33.265Z,100581.67
2018-10-01T14:23:02.457Z,100584.19
2018-10-01T14:25:31.656Z,100593.73
2018-10-01T14:28:01.040Z,100595.92
2018-10-01T14:30:30.239Z,100589.88
2018-10-01T14:32:59.346Z,100586.88
2018-10-01T14:35:28.772Z,100590.56
2018-10-01T14:37:58.194Z,100582.31
2018-10-01T14:40:27.308Z,100588.14
2018-10-01T14:42:56.524Z,100590.75
2018-10-01T14:45:25.624Z,100577.58
2018-10-01T14:47:54.787Z,100577.76
2018-10-01T14:50:23.899Z,100575.95
2018-10-01T14:52:53.286Z,100585.14
2018-10-01T14:55:22.369Z,100585.38
2018-10-01T14:57:51.430Z,100582.83
2018-10-01T15:00:20.649Z,100580.63
2018-10-01T15:02:49.677Z,100583.23
2018-10-01T15:05:18.786Z,100571.77
2018-10-01T15:07:47.839Z,100573.46
2018-10-01T15:10:17.034Z,100582.09
2018-10-01T15:12:46.049Z,100586.95
2018-10-01T15:15:15.191Z,100586.88
2018-10-01T15:17:44.292Z,100593.13
2018-10-01T15:20:13.508Z,100590.15
2018-10-01T15:22:42.677Z,100589.98
2018-10-01T15:25:11.825Z,100584.41
2018-10-01T15:27:40.856Z,100581.78
2018-10-01T15:30:10.022Z,100578.84
2018-10-01T15:32:39.134Z,100580.03
2018-10-01T15:35:08.178Z,100571.88
2018-10-01T15:37:37.344Z,100566.95
2018-10-01T15:40:06.372Z,100576.17
2018-10-01T15:42:35.522Z,100579.15
2018-10-01T15:45:04.653Z,100593.64
2018-10-01T15:47:33.729Z,100607.00
2018-10-01T15:50:02.851Z,100607.49
2018-10-01T15:52:32.407Z,100605.96
2018-10-01T15:55:01.565Z,100600.88
2018-10-01T15:57:30.603Z,100595.06
2018-10-01T15:59:59.750Z,100592.97
2018-10-01T16:02:28.958Z,100593.19
2018-10-01T16:04:58.136Z,100590.27
2018-10-01T16:07:27.246Z,100599.70
2018-10-01T16:09:56.288Z,100604.28
2018-10-01T16:12:25.460Z,100605.20
2018-10-01T16:14:54.803Z,100604.36
2018-10-01T16:17:23.967Z,100604.43
2018-10-01T16:19:53.056Z,100604.74
2018-10-01T16:22:22.112Z,100609.61
2018-10-01T16:24:51.282Z,100601.20
2018-10-01T16:27:20.326Z,100615.60
2018-10-01T16:29:49.390Z,100611.91
2018-10-01T16:32:18.589Z,100612.80
2018-10-01T16:34:47.668Z,100627.08
2018-10-01T16:37:16.734Z,100626.98
2018-10-01T16:39:46.184Z,100635.69
2018-10-01T16:42:15.582Z,100628.36
2018-10-01T16:44:44.630Z,100630.95
2018-10-01T16:47:13.646Z,100632.25
2018-10-01T16:49:42.704Z,100641.02
2018-10-01T16:52:11.916Z,100626.98
2018-10-01T16:54:41.010Z,100632.45
2018-10-01T16:57:10.116Z,100629.10
2018-10-01T16:59:39.418Z,100629.16
2018-10-01T17:02:08.525Z,100633.03
2018-10-01T17:04:37.624Z,100636.25
2018-10-01T17:07:06.761Z,100628.27
2018-10-01T17:09:35.875Z,100632.64
2018-10-01T17:12:04.982Z,100625.75
2018-10-01T17:14:34.068Z,100628.78
2018-10-01T17:17:03.220Z,100621.50
2018-10-01T17:19:32.380Z,100621.28
2018-10-01T17:22:01.425Z,100619.96
2018-10-01T17:24:30.577Z,100615.16
2018-10-01T17:26:59.900Z,100617.11
2018-10-01T17:29:28.888Z,100626.69
2018-10-01T17:31:58.029Z,100641.02
2018-10-01T17:34:27.157Z,100640.16
2018-10-01T17:36:56.263Z,100658.38
2018-10-01T17:39:25.306Z,100661.01
2018-10-01T17:41:54.494Z,100670.61
2018-10-01T17:44:23.533Z,100664.91
2018-10-01T17:46:52.567Z,100668.13
2018-10-01T17:49:21.688Z,100679.45
2018-10-01T17:51:51.417Z,100671.75
2018-10-01T17:54:21.095Z,100658.11
2018-10-01T17:56:50.218Z,100649.77
2018-10-01T17:59:19.625Z,100654.66
2018-10-01T18:01:48.873Z,100659.40
2018-10-01T18:04:17.903Z,100668.36
2018-10-01T18:06:46.953Z,100659.27
2018-10-01T18:09:15.983Z,100650.80
2018-10-01T18:11:45.178Z,100657.69
2018-10-01T18:14:14.236Z,100669.48
2018-10-01T18:16:43.404Z,100661.80
2018-10-01T18:19:12.493Z,100666.95
2018-10-01T18:21:41.606Z,100672.19
2018-10-01T18:24:10.690Z,100669.66
2018-10-01T18:26:39.683Z,100679.81
2018-10-01T18:29:08.825Z,100665.90
2018-10-01T18:31:37.928Z,100666.28
2018-10-01T18:34:07.422Z,100661.08
2018-10-01T18:36:36.510Z,100668.50
2018-10-01T18:39:15.941Z,100682.69
2018-10-01T18:41:45.161Z,100680.34
2018-10-01T18:44:14.216Z,100673.66
2018-10-01T18:46:43.476Z,100676.91
2018-10-01T18:49:12.507Z,100678.43
2018-10-01T18:51:41.542Z,100670.40
2018-10-01T18:54:10.681Z,100674.65
2018-10-01T18:56:39.787Z,100672.88
2018-10-01T18:59:09.188Z,100670.66
2018-10-01T19:01:38.548Z,100674.73
2018-10-01T19:04:07.705Z,100668.59
2018-10-01T19:06:36.776Z,100670.14
2018-10-01T19:09:09.040Z,100660.97
2018-10-01T19:11:38.343Z,100662.92
2018-10-01T19:14:07.428Z,100662.06
2018-10-01T19:16:36.909Z,100663.48
2018-10-01T19:19:06.212Z,100666.70
2018-10-01T19:21:35.372Z,100663.63
2018-10-01T19:24:04.499Z,100667.33
2018-10-01T19:26:33.517Z,100665.61
2018-10-01T19:29:02.917Z,100677.80
2018-10-01T19:31:32.039Z,100676.13
2018-10-01T19:34:01.171Z,100680.64
2018-10-01T19:36:30.247Z,100677.54
2018-10-01T19:38:59.301Z,100673.61
2018-10-01T19:41:28.473Z,100682.97
2018-10-01T19:43:57.560Z,100680.58
2018-10-01T19:46:26.599Z,100676.11
2018-10-01T19:48:55.795Z,100672.61
2018-10-01T19:51:24.937Z,100663.70
2018-10-01T19:53:54.088Z,100665.43
2018-10-01T19:56:23.227Z,100660.13
2018-10-01T19:58:52.396Z,100658.73
2018-10-01T20:01:21.434Z,100667.61
2018-10-01T20:03:50.575Z,100662.95
2018-10-01T20:06:19.688Z,100667.08
2018-10-01T20:08:48.853Z,100669.73
2018-10-01T20:11:17.977Z,100661.86
2018-10-01T20:13:47.118Z,100662.52
2018-10-01T20:16:16.180Z,100662.55
2018-10-01T20:18:45.244Z,100665.67
2018-10-01T20:21:14.433Z,100671.41
2018-10-01T20:23:43.578Z,100669.46
2018-10-01T20:26:12.713Z,100670.28
2018-10-01T20:28:41.964Z,100663.63
2018-10-01T20:31:10.920Z,100664.22
2018-10-01T20:33:40.089Z,100671.23
2018-10-01T20:36:09.316Z,100672.12
2018-10-01T20:38:38.379Z,100642.69
2018-10-01T20:41:07.478Z,100671.91
2018-10-01T20:43:36.586Z,100675.75
2018-10-01T20:46:06.109Z,100685.44
2018-10-01T20:48:35.576Z,100675.13
2018-10-01T20:51:05.208Z,100687.50
2018-10-01T20:53:34.407Z,100685.70
2018-10-01T20:56:03.516Z,100687.13
2018-10-01T20:58:32.588Z,100673.65
2018-10-01T21:01:01.976Z,100680.16
2018-10-01T21:03:31.061Z,100679.38
2018-10-01T21:06:00.096Z,100689.86
2018-10-01T21:08:29.733Z,100694.76
2018-10-01T21:10:59.077Z,100698.64
2018-10-01T21:13:28.469Z,100695.03
2018-10-01T21:15:57.671Z,100697.60
2018-10-01T21:18:26.924Z,100687.59
2018-10-01T21:20:56.161Z,100688.23
2018-10-01T21:23:25.632Z,100694.02
2018-10-01T21:25:54.681Z,100693.39
2018-10-01T21:28:23.820Z,100689.76
2018-10-01T21:30:53.104Z,100696.17
2018-10-01T21:33:22.171Z,100700.61
2018-10-01T21:35:51.292Z,100700.23
2018-10-01T21:38:20.437Z,100698.08
2018-10-01T21:40:49.573Z,100701.80
2018-10-01T21:43:18.756Z,100698.69
2018-10-01T21:45:47.828Z,100707.49
2018-10-01T21:48:17.170Z,100710.21
2018-10-01T21:50:46.335Z,100721.17
2018-10-01T21:53:15.554Z,100714.74
2018-10-01T21:55:44.702Z,100717.05
2018-10-01T21:58:13.773Z,100718.05
2018-10-01T22:00:47.804Z,100716.67
2018-10-01T22:03:16.856Z,100714.04
2018-10-01T22:05:46.022Z,100722.22
2018-10-01T22:08:15.245Z,100718.02
2018-10-01T22:10:44.650Z,100712.03
2018-10-01T22:13:14.089Z,100721.47
2018-10-01T22:15:47.188Z,100723.22
2018-10-01T22:18:20.216Z,100728.42
2018-10-01T22:20:49.478Z,100731.20
2018-10-01T22:23:18.553Z,100733.21
2018-10-01T22:25:47.642Z,100732.50
2018-10-01T22:28:16.844Z,100733.13
2018-10-01T22:30:45.858Z,100738.63
2018-10-01T22:33:16.016Z,100737.78
2018-10-01T22:35:45.169Z,100742.34
2018-10-01T22:38:14.194Z,100740.78
2018-10-01T22:40:43.350Z,100749.37
2018-10-01T22:43:12.537Z,100750.08
2018-10-01T22:45:41.546Z,100747.66
2018-10-01T22:48:10.682Z,100743.16
2018-10-01T22:50:39.782Z,100744.54
2018-10-01T22:53:08.824Z,100743.69
2018-10-01T22:55:37.915Z,100753.53
2018-10-01T22:58:07.342Z,100747.22
2018-10-01T23:00:36.403Z,100749.48
2018-10-01T23:03:05.580Z,100750.00
2018-10-01T23:05:34.688Z,100754.02
2018-10-01T23:08:03.715Z,100751.27
2018-10-01T23:10:32.802Z,100751.56
2018-10-01T23:13:02.056Z,100745.67
2018-10-01T23:15:31.258Z,100755.24
2018-10-01T23:18:00.307Z,100763.20
2018-10-01T23:20:29.550Z,100751.27
2018-10-01T23:22:58.696Z,100768.52
2018-10-01T23:25:27.710Z,100759.48
2018-10-01T23:27:56.849Z,100759.07
2018-10-01T23:30:25.875Z,100756.91
2018-10-01T23:32:54.911Z,100765.39
2018-10-01T23:35:24.022Z,100755.80
2018-10-01T23:37:53.043Z,100750.84
2018-10-01T23:40:22.184Z,100749.64
2018-10-01T23:42:51.375Z,100749.21
2018-10-01T23:45:20.402Z,100747.06
2018-10-01T23:47:49.435Z,100750.52
2018-10-01T23:50:18.519Z,100749.27
2018-10-01T23:52:47.657Z,100745.00
2018-10-01T23:55:16.755Z,100747.20
2018-10-01T23:57:45.811Z,100760.36
